createdAt,value
2018-12-14T00:00:15.360Z,-11.65
2018-12-14T00:02:51.547Z,-11.72
2018-12-14T00:05:27.968Z,-11.74
2018-12-14T00:08:04.341Z,-11.70
2018-12-14T00:10:40.728Z,-11.59
2018-12-14T00:13:17.040Z,-11.78
2018-12-14T00:15:54.516Z,-11.81
2018-12-14T00:18:30.812Z,-11.70
2018-12-14T00:21:07.221Z,-11.57
2018-12-14T00:23:44.209Z,-11.37
2018-12-14T00:26:20.607Z,-11.13
2018-12-14T00:28:57.941Z,-10.99
2018-12-14T00:31:35.565Z,-11.06
2018-12-14T00:37:22.697Z,-10.82
2018-12-14T00:40:10.185Z,-10.75
2018-12-14T00:42:52.148Z,-10.67
2018-12-14T00:45:34.567Z,-10.74
2018-12-14T00:48:16.763Z,-10.53
2018-12-14T00:50:54.824Z,-10.44
2018-12-14T00:53:34.101Z,-10.51
2018-12-14T00:56:12.250Z,-10.39
2018-12-14T00:58:55.164Z,-10.31
2018-12-14T01:04:24.716Z,-10.30
2018-12-14T01:07:08.109Z,-10.36
2018-12-14T01:09:51.341Z,-10.52
2018-12-14T01:12:34.538Z,-10.36
2018-12-14T01:15:19.491Z,-10.08
2018-12-14T01:18:00.879Z,-9.90
2018-12-14T01:20:42.494Z,-9.89
2018-12-14T01:23:22.209Z,-9.78
2018-12-14T01:26:00.034Z,-10.28
2018-12-14T01:28:38.044Z,-10.16
2018-12-14T01:31:37.117Z,-9.73
2018-12-14T01:37:13.480Z,-9.95
2018-12-14T01:39:53.966Z,-9.63
2018-12-14T01:42:33.473Z,-9.70
2018-12-14T01:45:12.103Z,-9.64
2018-12-14T01:47:52.538Z,-9.44
2018-12-14T01:50:33.253Z,-9.61
2018-12-14T01:53:13.609Z,-9.51
2018-12-14T01:55:51.422Z,-9.29
2018-12-14T01:58:29.523Z,-9.06
2018-12-14T02:01:08.578Z,-9.04
2018-12-14T02:03:45.099Z,-9.22
2018-12-14T02:06:21.058Z,-9.26
2018-12-14T02:08:58.538Z,-9.10
2018-12-14T02:11:39.232Z,-9.17
2018-12-14T02:14:23.557Z,-8.79
2018-12-14T02:17:05.198Z,-8.96
2018-12-14T02:19:43.435Z,-9.06
2018-12-14T02:22:29.469Z,-8.79
2018-12-14T02:25:09.648Z,-8.74
2018-12-14T02:27:56.536Z,-8.42
2018-12-14T02:41:36.092Z,-7.83
2018-12-14T02:53:26.805Z,-7.73
2018-12-14T02:56:13.171Z,-7.52
2018-12-14T02:58:51.897Z,-7.27
2018-12-14T03:01:40.908Z,-7.10
2018-12-14T03:04:19.823Z,-7.06
2018-12-14T03:07:11.352Z,-7.12
2018-12-14T03:13:18.687Z,-6.36
2018-12-14T04:55:41.420Z,-5.93
2018-12-14T05:03:14.296Z,-5.72
2018-12-14T05:12:55.994Z,-5.73
2018-12-14T05:15:29.856Z,-5.72
2018-12-14T05:18:08.542Z,-5.61
2018-12-14T05:20:46.378Z,-5.84
2018-12-14T05:23:30.708Z,-5.57
2018-12-14T05:26:21.747Z,-5.34
2018-12-14T05:42:35.549Z,-5.28
2018-12-14T05:54:55.325Z,-5.04
2018-12-14T06:09:47.572Z,-5.64
2018-12-14T06:12:27.912Z,-5.62
2018-12-14T06:15:07.134Z,-5.46
2018-12-14T06:17:47.542Z,-5.33
2018-12-14T06:20:29.659Z,-5.50
2018-12-14T06:23:46.350Z,-5.48
2018-12-14T06:30:13.405Z,-5.95
2018-12-14T06:32:55.964Z,-5.93
2018-12-14T06:35:33.209Z,-5.82
2018-12-14T06:38:11.240Z,-6.02
2018-12-14T06:40:48.844Z,-5.96
2018-12-14T06:46:29.090Z,-5.69
2018-12-14T06:49:05.976Z,-5.46
2018-12-14T06:51:43.479Z,-5.89
2018-12-14T06:54:20.604Z,-5.81
2018-12-14T06:56:56.622Z,-5.92
2018-12-14T06:59:41.367Z,-5.75
2018-12-14T07:02:18.215Z,-5.74
2018-12-14T07:04:55.631Z,-5.47
2018-12-14T07:08:03.036Z,-5.47
2018-12-14T07:10:42.821Z,-5.69
2018-12-14T07:13:30.530Z,-5.76
2018-12-14T07:21:53.186Z,-5.61
2018-12-14T07:24:30.075Z,-5.97
2018-12-14T07:27:12.215Z,-6.02
2018-12-14T07:29:52.479Z,-5.89
2018-12-14T07:32:55.256Z,-5.79
2018-12-14T07:35:33.852Z,-5.87
2018-12-14T07:38:15.364Z,-5.99
2018-12-14T07:40:53.977Z,-5.79
2018-12-14T07:46:35.907Z,-5.79
2018-12-14T07:49:16.575Z,-5.89
2018-12-14T07:51:56.554Z,-5.93
2018-12-14T07:54:53.002Z,-6.03
2018-12-14T07:57:32.826Z,-6.02
2018-12-14T08:00:16.096Z,-6.00
2018-12-14T08:08:37.308Z,-6.00
2018-12-14T08:12:11.657Z,-5.94
2018-12-14T08:14:55.503Z,-6.00
2018-12-14T08:20:30.729Z,-6.21
2018-12-14T08:23:33.844Z,-6.13
2018-12-14T08:29:35.533Z,-6.23
2018-12-14T08:32:33.818Z,-6.35
2018-12-14T08:35:12.469Z,-6.46
2018-12-14T08:38:05.088Z,-6.50
2018-12-14T08:40:45.281Z,-6.51
2018-12-14T08:43:54.814Z,-6.49
2018-12-14T08:46:34.750Z,-6.64
2018-12-14T08:49:15.271Z,-6.62
2018-12-14T08:54:36.202Z,-6.65
2018-12-14T08:57:15.626Z,-6.69
2018-12-14T08:59:57.759Z,-6.68
2018-12-14T09:02:41.171Z,-6.74
2018-12-14T09:05:18.205Z,-6.73
2018-12-14T09:07:56.147Z,-6.71
2018-12-14T09:10:35.066Z,-6.71
2018-12-14T09:13:18.096Z,-6.67
2018-12-14T09:15:56.299Z,-6.60
2018-12-14T09:18:33.941Z,-6.53
2018-12-14T09:21:21.677Z,-6.59
2018-12-14T09:24:01.376Z,-6.59
2018-12-14T09:26:38.181Z,-6.57
2018-12-14T09:29:15.695Z,-6.62
2018-12-14T09:31:53.188Z,-6.66
2018-12-14T09:34:30.218Z,-6.83
2018-12-14T09:37:07.452Z,-6.76
2018-12-14T09:39:44.178Z,-6.80
2018-12-14T09:42:22.770Z,-6.84
2018-12-14T09:44:59.445Z,-6.88
2018-12-14T09:47:39.760Z,-7.02
2018-12-14T09:50:19.039Z,-7.07
2018-12-14T09:52:55.589Z,-7.03
2018-12-14T09:55:32.413Z,-7.04
2018-12-14T09:58:09.222Z,-7.06
2018-12-14T10:00:48.100Z,-7.04
2018-12-14T10:03:28.892Z,-7.15
2018-12-14T10:06:06.980Z,-7.14
2018-12-14T10:08:45.893Z,-7.07
2018-12-14T10:11:24.440Z,-7.14
2018-12-14T10:14:04.607Z,-7.25
2018-12-14T10:16:42.655Z,-7.38
2018-12-14T10:19:21.270Z,-7.40
2018-12-14T10:21:59.755Z,-7.28
2018-12-14T10:24:38.134Z,-7.39
2018-12-14T10:32:19.474Z,-7.42
2018-12-14T10:34:59.274Z,-7.41
2018-12-14T10:37:40.803Z,-7.25
2018-12-14T10:40:19.591Z,-7.20
2018-12-14T10:42:58.337Z,-7.22
2018-12-14T10:45:37.103Z,-7.15
2018-12-14T10:48:15.258Z,-7.51
2018-12-14T10:50:53.705Z,-7.51
2018-12-14T10:53:34.641Z,-7.62
2018-12-14T10:56:13.753Z,-7.46
2018-12-14T10:58:52.716Z,-7.39
2018-12-14T11:01:33.220Z,-7.40
2018-12-14T11:04:15.105Z,-7.47
2018-12-14T11:06:53.736Z,-7.81
2018-12-14T11:09:33.193Z,-7.55
2018-12-14T11:12:11.878Z,-7.41
2018-12-14T11:14:50.423Z,-7.56
2018-12-14T11:17:30.474Z,-7.58
2018-12-14T11:20:09.643Z,-7.52
2018-12-14T11:22:48.171Z,-7.65
2018-12-14T11:25:26.219Z,-7.57
2018-12-14T11:28:05.827Z,-7.57
2018-12-14T11:30:46.057Z,-7.85
2018-12-14T11:33:40.390Z,-7.69
2018-12-14T11:43:26.998Z,-7.73
2018-12-14T11:46:04.037Z,-7.78
2018-12-14T11:48:42.942Z,-7.79
2018-12-14T11:51:29.853Z,-7.82
2018-12-14T11:54:06.716Z,-7.68
2018-12-14T11:56:43.155Z,-7.61
2018-12-14T11:59:20.046Z,-7.56
2018-12-14T12:01:57.180Z,-7.62
2018-12-14T12:04:37.020Z,-7.67
2018-12-14T12:07:14.304Z,-7.61
2018-12-14T12:09:53.394Z,-7.71
2018-12-14T12:12:32.082Z,-7.71
2018-12-14T12:15:11.330Z,-7.91
2018-12-14T12:17:49.531Z,-8.01
2018-12-14T12:20:26.712Z,-8.00
2018-12-14T12:23:03.927Z,-7.98
2018-12-14T12:25:43.367Z,-8.07
2018-12-14T12:28:23.420Z,-8.06
2018-12-14T12:31:08.714Z,-7.95
2018-12-14T12:33:46.123Z,-7.97
2018-12-14T12:36:25.160Z,-8.06
2018-12-14T12:39:04.716Z,-8.13
2018-12-14T12:41:42.378Z,-8.19
2018-12-14T12:44:20.274Z,-8.28
2018-12-14T12:46:58.201Z,-8.48
2018-12-14T12:49:39.819Z,-8.75
2018-12-14T12:52:17.747Z,-8.85
2018-12-14T12:54:55.736Z,-8.90
2018-12-14T12:57:34.369Z,-8.99
2018-12-14T13:00:12.227Z,-9.04
2018-12-14T13:02:50.014Z,-9.07
2018-12-14T13:05:34.691Z,-9.10
2018-12-14T13:08:09.403Z,-9.14
2018-12-14T13:10:48.410Z,-9.23
2018-12-14T13:13:25.947Z,-9.31
2018-12-14T13:16:04.200Z,-9.47
2018-12-14T13:18:43.303Z,-9.60
2018-12-14T13:21:21.428Z,-9.57
2018-12-14T13:24:00.450Z,-9.66
2018-12-14T13:26:38.845Z,-9.71
2018-12-14T13:29:16.456Z,-9.72
2018-12-14T13:31:56.186Z,-9.74
2018-12-14T13:34:36.187Z,-9.83
2018-12-14T13:37:12.352Z,-9.81
2018-12-14T13:39:56.162Z,-9.87
2018-12-14T13:42:34.357Z,-9.93
2018-12-14T13:45:15.547Z,-9.92
2018-12-14T13:47:53.342Z,-9.90
2018-12-14T13:50:32.099Z,-9.92
2018-12-14T13:53:10.357Z,-9.93
2018-12-14T13:55:48.361Z,-9.92
2018-12-14T13:58:26.535Z,-9.98
2018-12-14T14:01:05.060Z,-10.01
2018-12-14T14:09:18.743Z,-10.03
2018-12-14T14:12:01.339Z,-10.03
2018-12-14T14:14:41.887Z,-10.01
2018-12-14T14:17:23.762Z,-10.06
2018-12-14T14:20:02.244Z,-10.05
2018-12-14T14:22:48.237Z,-9.99
2018-12-14T14:25:27.795Z,-9.99
2018-12-14T14:28:10.370Z,-10.05
2018-12-14T14:30:49.161Z,-10.18
2018-12-14T14:33:27.849Z,-10.17
2018-12-14T14:36:05.949Z,-10.15
2018-12-14T14:38:42.908Z,-10.13
2018-12-14T14:41:20.798Z,-10.05
2018-12-14T14:44:01.274Z,-9.94
2018-12-14T14:46:39.685Z,-9.95
2018-12-14T14:49:16.051Z,-9.90
2018-12-14T14:51:52.532Z,-9.86
2018-12-14T14:54:28.887Z,-9.81
2018-12-14T14:57:04.944Z,-9.78
2018-12-14T14:59:41.124Z,-9.91
2018-12-14T15:02:17.018Z,-9.86
2018-12-14T15:04:53.882Z,-9.86
2018-12-14T15:07:32.410Z,-9.93
2018-12-14T15:10:09.460Z,-9.90
2018-12-14T15:12:47.843Z,-9.85
2018-12-14T15:15:25.559Z,-9.87
2018-12-14T15:18:02.725Z,-9.88
2018-12-14T15:20:41.721Z,-9.90
2018-12-14T15:23:19.286Z,-9.94
2018-12-14T15:25:57.289Z,-10.01
2018-12-14T15:28:35.435Z,-10.02
2018-12-14T15:31:11.607Z,-10.00
2018-12-14T15:33:47.745Z,-10.01
2018-12-14T15:36:24.355Z,-10.07
2018-12-14T15:39:00.501Z,-10.08
2018-12-14T15:41:36.817Z,-10.11
2018-12-14T15:44:13.294Z,-10.16
2018-12-14T15:46:49.951Z,-10.21
2018-12-14T15:49:26.888Z,-10.25
2018-12-14T15:52:04.531Z,-10.20
2018-12-14T15:54:41.503Z,-10.13
2018-12-14T15:57:18.492Z,-10.18
2018-12-14T15:59:55.138Z,-10.19
2018-12-14T16:02:31.160Z,-10.20
2018-12-14T16:05:08.805Z,-10.18
2018-12-14T16:07:45.833Z,-10.21
2018-12-14T16:10:24.069Z,-10.29
2018-12-14T16:13:09.529Z,-10.25
2018-12-14T16:15:46.904Z,-10.32
2018-12-14T16:18:23.380Z,-10.37
2018-12-14T16:21:00.715Z,-10.41
2018-12-14T16:23:40.245Z,-10.49
2018-12-14T16:26:16.655Z,-10.50
2018-12-14T16:28:52.969Z,-10.61
2018-12-14T16:31:29.772Z,-10.63
2018-12-14T16:34:05.974Z,-10.68
2018-12-14T16:36:43.215Z,-10.68
2018-12-14T16:39:20.555Z,-10.73
2018-12-14T16:41:59.339Z,-10.66
2018-12-14T16:44:37.913Z,-10.60
2018-12-14T16:47:14.612Z,-10.51
2018-12-14T16:49:50.600Z,-10.51
2018-12-14T16:52:27.618Z,-10.50
2018-12-14T16:55:03.968Z,-10.50
2018-12-14T16:57:41.440Z,-10.50
2018-12-14T17:00:18.289Z,-10.51
2018-12-14T17:02:58.529Z,-10.51
2018-12-14T17:05:35.698Z,-10.59
2018-12-14T17:08:12.466Z,-10.51
2018-12-14T17:10:50.734Z,-10.48
2018-12-14T17:13:30.920Z,-10.28
2018-12-14T17:16:08.260Z,-10.20
2018-12-14T17:18:44.813Z,-10.21
2018-12-14T17:21:21.889Z,-10.08
2018-12-14T17:23:58.029Z,-10.03
2018-12-14T17:26:35.139Z,-10.01
2018-12-14T17:29:11.712Z,-10.07
2018-12-14T17:31:48.095Z,-10.06
2018-12-14T17:34:24.683Z,-10.10
2018-12-14T17:37:01.436Z,-10.05
2018-12-14T17:39:37.745Z,-10.04
2018-12-14T17:42:15.014Z,-9.95
2018-12-14T17:49:56.998Z,-9.93
2018-12-14T17:52:32.971Z,-9.82
2018-12-14T17:55:09.023Z,-9.77
2018-12-14T17:57:44.899Z,-9.82
2018-12-14T18:00:21.135Z,-9.85
2018-12-14T18:02:57.167Z,-9.80
2018-12-14T18:05:33.377Z,-9.66
2018-12-14T18:08:09.567Z,-9.68
2018-12-14T18:10:47.537Z,-9.69
2018-12-14T18:13:23.519Z,-9.62
2018-12-14T18:16:01.493Z,-9.61
2018-12-14T18:18:37.388Z,-9.56
2018-12-14T18:21:13.721Z,-9.54
2018-12-14T18:23:51.265Z,-9.67
2018-12-14T18:26:28.592Z,-9.67
2018-12-14T18:29:05.537Z,-9.72
2018-12-14T18:31:41.778Z,-9.87
2018-12-14T18:34:17.787Z,-9.86
2018-12-14T18:36:53.869Z,-9.99
2018-12-14T18:39:30.313Z,-10.14
2018-12-14T18:42:07.316Z,-10.11
2018-12-14T18:44:43.296Z,-10.12
2018-12-14T18:47:19.555Z,-10.04
2018-12-14T18:49:55.458Z,-9.95
2018-12-14T18:52:31.505Z,-9.91
2018-12-14T18:55:08.658Z,-9.91
2018-12-14T18:57:45.114Z,-9.96
2018-12-14T19:00:21.719Z,-10.01
2018-12-14T19:02:58.971Z,-10.04
2018-12-14T19:05:35.228Z,-10.04
2018-12-14T19:08:11.322Z,-10.14
2018-12-14T19:10:47.082Z,-10.12
2018-12-14T19:13:23.127Z,-10.14
2018-12-14T19:15:59.788Z,-10.20
2018-12-14T19:18:36.272Z,-10.22
2018-12-14T19:21:13.950Z,-10.18
2018-12-14T19:23:50.230Z,-10.22
2018-12-14T19:26:27.229Z,-10.27
2018-12-14T19:29:03.667Z,-10.36
2018-12-14T19:31:40.618Z,-10.33
2018-12-14T19:34:17.096Z,-10.38
2018-12-14T19:36:53.304Z,-10.43
2018-12-14T19:39:30.687Z,-10.36
2018-12-14T19:42:10.870Z,-10.35
2018-12-14T19:44:47.545Z,-10.44
2018-12-14T19:47:25.007Z,-10.46
2018-12-14T19:50:02.483Z,-10.47
2018-12-14T19:52:38.882Z,-10.39
2018-12-14T19:55:16.208Z,-10.40
2018-12-14T19:57:52.469Z,-10.33
2018-12-14T20:00:28.723Z,-10.28
2018-12-14T20:03:05.033Z,-10.31
2018-12-14T20:05:43.972Z,-10.25
2018-12-14T20:08:20.263Z,-10.27
2018-12-14T20:10:56.571Z,-10.36
2018-12-14T20:13:32.774Z,-10.28
2018-12-14T20:16:12.725Z,-10.17
2018-12-14T20:18:48.414Z,-10.15
2018-12-14T20:21:26.948Z,-10.16
2018-12-14T20:24:04.482Z,-10.11
2018-12-14T20:26:41.844Z,-10.06
2018-12-14T20:29:18.261Z,-10.11
2018-12-14T20:31:55.573Z,-10.14
2018-12-14T20:34:32.884Z,-10.12
2018-12-14T20:37:10.370Z,-10.11
2018-12-14T20:39:47.590Z,-10.12
2018-12-14T20:42:23.836Z,-10.12
2018-12-14T20:45:01.999Z,-10.05
2018-12-14T20:47:39.486Z,-10.13
2018-12-14T20:50:17.520Z,-10.13
2018-12-14T20:52:54.866Z,-10.16
2018-12-14T20:55:32.163Z,-10.14
2018-12-14T20:58:08.477Z,-10.22
2018-12-14T21:00:44.842Z,-10.22
2018-12-14T21:03:21.070Z,-10.15
2018-12-14T21:05:57.369Z,-10.19
2018-12-14T21:08:33.355Z,-10.15
2018-12-14T21:11:09.873Z,-10.13
2018-12-14T21:13:46.143Z,-10.21
2018-12-14T21:16:30.193Z,-10.21
2018-12-14T21:19:06.464Z,-10.12
2018-12-14T21:21:42.895Z,-10.09
2018-12-14T21:24:19.033Z,-10.05
2018-12-14T21:26:55.119Z,-10.07
2018-12-14T21:29:32.897Z,-10.07
2018-12-14T21:32:10.877Z,-10.05
2018-12-14T21:34:48.816Z,-10.03
2018-12-14T21:37:25.512Z,-10.01
2018-12-14T21:40:01.898Z,-9.97
2018-12-14T21:42:38.165Z,-9.99
2018-12-14T21:45:14.534Z,-10.06
2018-12-14T21:47:51.008Z,-10.08
2018-12-14T21:50:27.269Z,-10.06
2018-12-14T21:53:03.683Z,-10.06
2018-12-14T21:55:39.761Z,-10.01
2018-12-14T21:58:16.147Z,-9.96
2018-12-14T22:00:53.674Z,-9.99
2018-12-14T22:03:29.870Z,-10.02
2018-12-14T22:06:06.216Z,-10.05
2018-12-14T22:08:42.755Z,-10.09
2018-12-14T22:11:18.907Z,-10.14
2018-12-14T22:13:55.068Z,-10.05
2018-12-14T22:16:39.187Z,-10.04
2018-12-14T22:19:14.020Z,-9.99
2018-12-14T22:21:50.097Z,-9.98
2018-12-14T22:24:27.396Z,-9.92
2018-12-14T22:27:03.551Z,-9.88
2018-12-14T22:29:39.688Z,-9.86
2018-12-14T22:32:16.253Z,-9.85
2018-12-14T22:34:53.201Z,-9.79
2018-12-14T22:37:29.492Z,-9.79
2018-12-14T22:40:05.601Z,-9.76
2018-12-14T22:42:42.691Z,-9.71
2018-12-14T22:45:18.785Z,-9.70
2018-12-14T22:47:54.775Z,-9.64
2018-12-14T22:50:33.285Z,-9.62
2018-12-14T22:53:09.515Z,-9.59
2018-12-14T22:55:45.401Z,-9.55
2018-12-14T22:58:21.421Z,-9.57
2018-12-14T23:01:00.425Z,-9.64
2018-12-14T23:03:37.633Z,-9.59
2018-12-14T23:06:14.506Z,-9.66
2018-12-14T23:08:50.623Z,-9.54
2018-12-14T23:11:26.591Z,-9.49
2018-12-14T23:14:05.405Z,-9.44
2018-12-14T23:16:41.611Z,-9.46
2018-12-14T23:19:17.917Z,-9.39
2018-12-14T23:21:54.366Z,-9.36
2018-12-14T23:24:30.337Z,-9.36
2018-12-14T23:27:06.803Z,-9.31
2018-12-14T23:29:43.962Z,-9.25
2018-12-14T23:32:20.247Z,-9.15
2018-12-14T23:34:58.345Z,-9.13
2018-12-14T23:37:36.084Z,-9.00
2018-12-14T23:40:13.463Z,-8.95
2018-12-14T23:42:52.283Z,-8.83
2018-12-14T23:45:33.622Z,-8.75
2018-12-14T23:48:18.300Z,-8.71
2018-12-14T23:50:56.920Z,-8.69
2018-12-14T23:53:35.013Z,-8.61
2018-12-14T23:56:13.033Z,-8.54
2018-12-14T23:58:51.071Z,-8.51
